createdAt,value
2018-04-26T00:01:41.131Z,12.18
2018-04-26T00:04:08.775Z,12.31
2018-04-26T00:06:36.380Z,12.20
2018-04-26T00:09:04.122Z,12.07
2018-04-26T00:11:31.722Z,12.14
2018-04-26T00:13:59.434Z,12.17
2018-04-26T00:16:27.071Z,12.05
2018-04-26T00:18:54.684Z,11.95
2018-04-26T00:21:22.333Z,12.11
2018-04-26T00:23:49.939Z,12.17
2018-04-26T00:26:17.596Z,12.08
2018-04-26T00:28:45.202Z,12.09
2018-04-26T00:31:12.847Z,12.01
2018-04-26T00:33:40.455Z,12.10
2018-04-26T00:36:08.104Z,12.08
2018-04-26T00:38:35.724Z,12.00
2018-04-26T00:41:04.239Z,11.81
2018-04-26T00:43:32.010Z,11.83
2018-04-26T00:45:59.666Z,11.65
2018-04-26T00:48:27.290Z,11.55
2018-04-26T00:50:54.935Z,11.77
2018-04-26T00:53:22.538Z,11.59
2018-04-26T00:55:50.191Z,11.62
2018-04-26T00:58:17.879Z,11.57
2018-04-26T01:00:45.555Z,11.53
2018-04-26T01:03:13.161Z,11.48
2018-04-26T01:05:40.807Z,11.46
2018-04-26T01:08:08.430Z,11.58
2018-04-26T01:10:36.103Z,11.46
2018-04-26T01:13:03.730Z,11.41
2018-04-26T01:15:31.384Z,11.47
2018-04-26T01:17:58.985Z,11.51
2018-04-26T01:20:26.634Z,11.47
2018-04-26T01:22:54.238Z,11.59
2018-04-26T01:25:21.882Z,11.57
2018-04-26T01:27:49.491Z,11.59
2018-04-26T01:30:17.158Z,11.56
2018-04-26T01:32:44.789Z,11.53
2018-04-26T01:35:12.430Z,11.46
2018-04-26T01:37:48.076Z,11.43
2018-04-26T01:40:15.723Z,11.37
2018-04-26T01:42:43.324Z,11.35
2018-04-26T01:45:10.979Z,11.06
2018-04-26T01:47:38.586Z,11.12
2018-04-26T01:50:06.239Z,11.07
2018-04-26T01:52:33.855Z,11.19
2018-04-26T01:55:01.627Z,11.21
2018-04-26T01:57:29.234Z,11.24
2018-04-26T01:59:56.887Z,11.07
2018-04-26T02:02:24.490Z,11.02
2018-04-26T02:04:52.136Z,11.04
2018-04-26T02:07:19.742Z,11.01
2018-04-26T02:09:47.593Z,10.97
2018-04-26T02:12:15.207Z,10.95
2018-04-26T02:14:42.846Z,10.88
2018-04-26T02:17:10.467Z,10.90
2018-04-26T02:19:38.147Z,10.88
2018-04-26T02:22:05.752Z,10.89
2018-04-26T02:24:33.404Z,10.74
2018-04-26T02:27:01.012Z,10.79
2018-04-26T02:29:28.618Z,10.69
2018-04-26T02:31:56.267Z,10.68
2018-04-26T02:34:23.878Z,10.59
2018-04-26T02:36:51.533Z,10.64
2018-04-26T02:39:19.144Z,10.59
2018-04-26T02:41:46.798Z,10.57
2018-04-26T02:44:14.426Z,10.64
2018-04-26T02:46:42.079Z,10.67
2018-04-26T02:49:09.695Z,10.65
2018-04-26T02:51:37.358Z,10.49
2018-04-26T02:54:04.987Z,10.45
2018-04-26T02:56:32.632Z,10.41
2018-04-26T02:59:00.237Z,10.54
2018-04-26T03:01:27.889Z,10.62
2018-04-26T03:03:55.513Z,10.56
2018-04-26T03:06:23.172Z,10.55
2018-04-26T03:08:50.786Z,10.40
2018-04-26T03:11:18.436Z,10.52
2018-04-26T03:13:46.047Z,10.42
2018-04-26T03:16:13.694Z,10.32
2018-04-26T03:18:41.300Z,10.33
2018-04-26T03:21:08.959Z,10.44
2018-04-26T03:23:36.612Z,10.41
2018-04-26T03:26:04.294Z,10.49
2018-04-26T03:28:31.904Z,10.39
2018-04-26T03:30:59.576Z,10.47
2018-04-26T03:33:27.183Z,10.57
2018-04-26T03:35:54.831Z,10.45
2018-04-26T03:38:22.439Z,10.52
2018-04-26T03:40:50.085Z,10.08
2018-04-26T03:43:17.695Z,10.22
2018-04-26T03:45:45.335Z,9.99
2018-04-26T03:48:12.938Z,9.91
2018-04-26T03:50:40.578Z,9.70
2018-04-26T03:53:08.183Z,9.59
2018-04-26T03:55:35.827Z,9.41
2018-04-26T03:58:03.444Z,9.33
2018-04-26T04:00:42.839Z,9.34
2018-04-26T04:03:22.135Z,9.33
2018-04-26T04:05:54.324Z,9.27
2018-04-26T04:08:21.934Z,9.18
2018-04-26T04:10:49.578Z,9.21
2018-04-26T04:13:17.178Z,9.06
2018-04-26T04:15:44.838Z,9.15
2018-04-26T04:18:12.498Z,9.02
2018-04-26T04:20:40.143Z,8.94
2018-04-26T04:23:08.264Z,8.74
2018-04-26T04:25:35.934Z,8.56
2018-04-26T04:28:03.635Z,8.77
2018-04-26T04:30:31.230Z,8.94
2018-04-26T04:32:58.831Z,9.11
2018-04-26T04:35:26.476Z,9.28
2018-04-26T04:37:54.086Z,9.40
2018-04-26T04:40:21.736Z,9.54
2018-04-26T04:42:49.342Z,9.64
2018-04-26T04:45:17.002Z,9.79
2018-04-26T04:47:44.660Z,9.73
2018-04-26T04:50:12.297Z,9.96
2018-04-26T04:52:39.946Z,10.15
2018-04-26T04:55:07.587Z,10.28
2018-04-26T04:57:35.237Z,10.39
2018-04-26T05:00:02.848Z,10.59
2018-04-26T05:02:30.490Z,10.77
2018-04-26T05:04:58.097Z,10.90
2018-04-26T05:07:25.828Z,10.99
2018-04-26T05:09:53.403Z,11.21
2018-04-26T05:12:21.050Z,11.23
2018-04-26T05:14:48.653Z,11.36
2018-04-26T05:17:16.338Z,11.52
2018-04-26T05:19:43.976Z,11.55
2018-04-26T05:22:11.639Z,11.72
2018-04-26T05:24:39.342Z,11.86
2018-04-26T05:27:06.980Z,12.03
2018-04-26T05:29:34.584Z,12.05
2018-04-26T05:32:02.226Z,12.26
2018-04-26T05:34:29.840Z,12.46
2018-04-26T05:36:57.482Z,12.73
2018-04-26T05:39:25.101Z,12.83
2018-04-26T05:41:52.755Z,12.79
2018-04-26T05:44:20.386Z,13.18
2018-04-26T05:46:48.043Z,13.63
2018-04-26T05:49:15.651Z,13.58
2018-04-26T05:51:43.310Z,13.25
2018-04-26T05:54:10.918Z,13.57
2018-04-26T05:56:38.566Z,13.55
2018-04-26T05:59:06.179Z,13.64
2018-04-26T06:01:33.935Z,13.52
2018-04-26T06:04:01.551Z,13.60
2018-04-26T06:06:29.198Z,13.75
2018-04-26T06:08:56.860Z,13.76
2018-04-26T06:11:24.510Z,13.98
2018-04-26T06:13:52.188Z,14.37
2018-04-26T06:16:19.834Z,14.35
2018-04-26T06:18:47.442Z,14.18
2018-04-26T06:21:15.091Z,13.93
2018-04-26T06:23:42.695Z,14.06
2018-04-26T06:26:10.351Z,14.25
2018-04-26T06:28:37.964Z,14.34
2018-04-26T06:31:05.649Z,14.33
2018-04-26T06:33:33.318Z,14.59
2018-04-26T06:36:01.025Z,14.96
2018-04-26T06:38:28.674Z,15.02
2018-04-26T06:40:56.325Z,14.88
2018-04-26T06:43:23.927Z,15.25
2018-04-26T06:45:51.575Z,15.69
2018-04-26T06:48:19.196Z,16.05
2018-04-26T06:50:46.802Z,15.35
2018-04-26T06:53:14.450Z,14.74
2018-04-26T06:55:42.090Z,15.01
2018-04-26T06:58:09.741Z,14.69
2018-04-26T07:00:37.387Z,15.39
2018-04-26T07:03:05.094Z,15.06
2018-04-26T07:05:32.742Z,15.50
2018-04-26T07:08:00.392Z,16.13
2018-04-26T07:10:28.008Z,15.87
2018-04-26T07:12:55.670Z,15.21
2018-04-26T07:15:23.283Z,14.67
2018-04-26T07:17:50.931Z,14.97
2018-04-26T07:20:18.535Z,16.21
2018-04-26T07:22:46.183Z,16.14
2018-04-26T07:25:13.795Z,16.49
2018-04-26T07:27:41.447Z,16.98
2018-04-26T07:30:09.055Z,16.63
2018-04-26T07:32:36.704Z,16.36
2018-04-26T07:35:04.328Z,15.78
2018-04-26T07:37:31.975Z,15.39
2018-04-26T07:39:59.582Z,15.38
2018-04-26T07:42:27.266Z,15.16
2018-04-26T07:44:54.875Z,14.86
2018-04-26T07:47:22.529Z,15.53
2018-04-26T07:49:50.147Z,15.38
2018-04-26T07:52:17.796Z,14.93
2018-04-26T07:54:45.533Z,16.13
2018-04-26T07:57:13.191Z,16.12
2018-04-26T07:59:40.792Z,15.57
2018-04-26T08:02:08.395Z,15.67
2018-04-26T08:04:36.039Z,15.47
2018-04-26T08:07:03.734Z,15.01
2018-04-26T08:09:31.384Z,14.49
2018-04-26T08:11:58.996Z,14.43
2018-04-26T08:14:26.642Z,15.69
2018-04-26T08:16:54.246Z,15.27
2018-04-26T08:19:21.891Z,15.76
2018-04-26T08:21:49.494Z,17.93
2018-04-26T08:24:18.002Z,18.31
2018-04-26T08:26:45.611Z,17.13
2018-04-26T08:29:13.259Z,16.21
2018-04-26T08:31:40.866Z,15.72
2018-04-26T08:34:08.511Z,15.03
2018-04-26T08:36:36.114Z,14.72
2018-04-26T08:39:03.859Z,14.88
2018-04-26T08:41:31.463Z,15.81
2018-04-26T08:43:59.112Z,16.45
2018-04-26T08:46:26.778Z,17.69
2018-04-26T08:48:54.432Z,17.92
2018-04-26T08:51:22.040Z,16.94
2018-04-26T08:53:49.871Z,17.14
2018-04-26T08:56:17.482Z,16.67
2018-04-26T08:58:45.106Z,16.45
2018-04-26T09:01:12.755Z,16.49
2018-04-26T09:03:40.355Z,16.19
2018-04-26T09:06:08.007Z,16.06
2018-04-26T09:08:35.625Z,15.99
2018-04-26T09:11:03.275Z,16.32
2018-04-26T09:13:30.909Z,17.03
2018-04-26T09:15:58.667Z,18.02
2018-04-26T09:18:26.302Z,18.59
2018-04-26T09:20:53.952Z,19.38
2018-04-26T09:23:21.549Z,18.42
2018-04-26T09:25:49.200Z,18.16
2018-04-26T09:28:16.798Z,17.18
2018-04-26T09:30:44.446Z,16.69
2018-04-26T09:33:12.128Z,17.54
2018-04-26T09:35:39.801Z,17.00
2018-04-26T09:38:07.406Z,16.75
2018-04-26T09:40:35.050Z,16.72
2018-04-26T09:43:02.655Z,16.55
2018-04-26T09:45:30.302Z,16.89
2018-04-26T09:47:57.911Z,16.74
2018-04-26T09:50:25.554Z,16.72
2018-04-26T09:52:53.163Z,16.19
2018-04-26T09:55:20.771Z,15.70
2018-04-26T09:57:48.416Z,15.25
2018-04-26T10:00:21.686Z,16.76
2018-04-26T10:02:49.366Z,17.73
2018-04-26T10:05:17.015Z,18.08
2018-04-26T10:07:44.667Z,17.30
2018-04-26T10:10:12.276Z,17.22
2018-04-26T10:12:39.927Z,17.22
2018-04-26T10:15:07.556Z,16.19
2018-04-26T10:17:35.214Z,16.50
2018-04-26T10:20:02.815Z,16.60
2018-04-26T10:22:30.463Z,17.45
2018-04-26T10:24:58.071Z,18.47
2018-04-26T10:27:25.727Z,18.65
2018-04-26T10:29:54.244Z,19.10
2018-04-26T10:32:21.890Z,18.45
2018-04-26T10:34:49.495Z,17.35
2018-04-26T10:37:17.143Z,17.42
2018-04-26T10:39:44.746Z,17.30
2018-04-26T10:42:12.423Z,17.54
2018-04-26T10:44:40.090Z,16.96
2018-04-26T10:47:07.743Z,17.55
2018-04-26T10:49:35.347Z,18.11
2018-04-26T10:52:02.992Z,18.72
2018-04-26T10:54:30.594Z,18.42
2018-04-26T10:56:58.250Z,18.03
2018-04-26T10:59:25.871Z,17.26
2018-04-26T11:01:53.517Z,17.43
2018-04-26T11:04:21.159Z,18.12
2018-04-26T11:06:48.762Z,17.85
2018-04-26T11:09:16.518Z,17.07
2018-04-26T11:11:44.048Z,17.08
2018-04-26T11:14:11.690Z,17.22
2018-04-26T11:16:39.299Z,17.10
2018-04-26T11:19:06.946Z,17.40
2018-04-26T11:21:34.554Z,17.08
2018-04-26T11:24:02.196Z,17.12
2018-04-26T11:26:29.798Z,17.11
2018-04-26T11:28:57.452Z,17.23
2018-04-26T11:31:25.058Z,17.03
2018-04-26T11:33:52.731Z,17.52
2018-04-26T11:36:20.347Z,17.57
2018-04-26T11:38:47.986Z,17.86
2018-04-26T11:41:15.595Z,18.38
2018-04-26T11:43:43.254Z,18.32
2018-04-26T11:46:10.861Z,18.45
2018-04-26T11:48:38.528Z,19.84
2018-04-26T11:51:06.139Z,19.85
2018-04-26T11:53:33.784Z,18.57
2018-04-26T11:56:01.416Z,17.85
2018-04-26T11:58:29.067Z,17.42
2018-04-26T12:00:56.700Z,17.27
2018-04-26T12:03:24.342Z,17.47
2018-04-26T12:05:51.947Z,17.88
2018-04-26T12:08:19.596Z,17.55
2018-04-26T12:10:47.242Z,18.06
2018-04-26T12:13:14.971Z,18.62
2018-04-26T12:15:42.539Z,18.18
2018-04-26T12:18:10.187Z,17.93
2018-04-26T12:20:37.790Z,18.09
2018-04-26T12:23:05.430Z,17.97
2018-04-26T12:25:33.036Z,17.62
2018-04-26T12:28:00.687Z,17.80
2018-04-26T12:30:28.292Z,18.05
2018-04-26T12:32:55.947Z,17.81
2018-04-26T12:35:23.748Z,17.56
2018-04-26T12:37:51.442Z,17.28
2018-04-26T12:40:19.042Z,17.06
2018-04-26T12:42:46.692Z,17.36
2018-04-26T12:45:14.302Z,17.80
2018-04-26T12:47:41.947Z,18.51
2018-04-26T12:50:09.563Z,18.63
2018-04-26T12:52:37.214Z,18.35
2018-04-26T12:55:04.818Z,18.03
2018-04-26T12:57:32.459Z,18.25
2018-04-26T13:00:00.059Z,18.70
2018-04-26T13:02:27.710Z,19.09
2018-04-26T13:04:55.353Z,18.91
2018-04-26T13:07:23.006Z,18.95
2018-04-26T13:09:50.651Z,18.73
2018-04-26T13:12:18.258Z,18.26
2018-04-26T13:14:45.905Z,18.17
2018-04-26T13:17:13.516Z,18.29
2018-04-26T13:19:41.190Z,18.17
2018-04-26T13:22:08.834Z,17.76
2018-04-26T13:24:36.480Z,17.81
2018-04-26T13:27:04.185Z,17.62
2018-04-26T13:29:31.789Z,17.68
2018-04-26T13:31:59.407Z,18.21
2018-04-26T13:34:27.061Z,18.46
2018-04-26T13:36:54.675Z,18.86
2018-04-26T13:39:22.315Z,18.90
2018-04-26T13:41:49.932Z,19.65
2018-04-26T13:44:17.606Z,19.59
2018-04-26T13:46:45.210Z,19.07
2018-04-26T13:49:12.861Z,18.27
2018-04-26T13:51:40.474Z,18.54
2018-04-26T13:54:08.122Z,18.49
2018-04-26T13:56:35.726Z,19.40
2018-04-26T13:59:03.379Z,19.89
2018-04-26T14:01:30.982Z,19.70
2018-04-26T14:03:58.622Z,19.46
2018-04-26T14:06:26.331Z,19.40
2018-04-26T14:08:54.095Z,19.55
2018-04-26T14:11:21.860Z,19.24
2018-04-26T14:13:49.584Z,19.46
2018-04-26T14:16:17.391Z,18.69
2018-04-26T14:18:45.252Z,19.31
2018-04-26T14:21:12.992Z,19.44
2018-04-26T14:23:40.783Z,20.03
2018-04-26T14:26:08.548Z,19.55
2018-04-26T14:28:36.414Z,19.51
2018-04-26T14:31:04.076Z,19.64
2018-04-26T14:33:31.943Z,19.84
2018-04-26T14:35:59.704Z,20.04
2018-04-26T14:38:27.355Z,20.65
2018-04-26T14:40:54.966Z,19.71
2018-04-26T14:43:22.652Z,19.91
2018-04-26T14:45:50.264Z,19.31
2018-04-26T14:48:17.919Z,19.06
2018-04-26T14:50:45.527Z,18.92
2018-04-26T14:53:13.184Z,19.14
2018-04-26T14:55:40.841Z,18.92
2018-04-26T14:58:08.616Z,18.47
2018-04-26T15:00:36.432Z,18.56
2018-04-26T15:03:04.245Z,18.25
2018-04-26T15:05:32.064Z,18.05
2018-04-26T15:07:59.935Z,18.07
2018-04-26T15:10:27.695Z,18.49
2018-04-26T15:12:55.338Z,18.47
2018-04-26T15:15:22.951Z,18.40
2018-04-26T15:17:50.559Z,18.04
2018-04-26T15:20:18.202Z,17.98
2018-04-26T15:22:45.822Z,18.25
2018-04-26T15:25:13.471Z,18.70
2018-04-26T15:27:41.071Z,18.67
2018-04-26T15:30:08.714Z,18.80
2018-04-26T15:32:36.314Z,19.19
2018-04-26T15:35:03.972Z,19.28
2018-04-26T15:37:31.583Z,19.06
2018-04-26T15:39:59.234Z,18.73
2018-04-26T15:42:26.835Z,19.37
2018-04-26T15:44:54.485Z,19.29
2018-04-26T15:47:22.090Z,19.22
2018-04-26T15:49:49.730Z,19.23
2018-04-26T15:55:31.447Z,18.57
2018-04-26T16:01:28.411Z,19.33
2018-04-26T16:04:07.818Z,19.50
2018-04-26T16:06:45.387Z,18.75
2018-04-26T16:09:24.958Z,18.91
2018-04-26T16:12:04.443Z,18.96
2018-04-26T16:14:44.100Z,18.86
2018-04-26T16:17:29.159Z,18.90
2018-04-26T16:20:14.227Z,18.70
2018-04-26T16:22:59.225Z,18.38
2018-04-26T16:25:38.811Z,18.30
2018-04-26T16:28:23.768Z,17.96
2018-04-26T16:31:08.845Z,17.78
2018-04-26T16:33:48.251Z,17.93
2018-04-26T16:36:27.692Z,17.93
2018-04-26T16:41:58.203Z,17.98
2018-04-26T16:44:26.797Z,18.08
2018-04-26T16:46:54.434Z,17.73
2018-04-26T16:49:22.043Z,17.59
2018-04-26T16:51:49.688Z,17.77
2018-04-26T16:54:17.291Z,17.48
2018-04-26T16:56:44.935Z,17.49
2018-04-26T16:59:12.546Z,17.53
2018-04-26T17:01:40.203Z,17.40
2018-04-26T17:04:07.822Z,17.45
2018-04-26T17:06:35.503Z,17.22
2018-04-26T17:09:03.191Z,17.08
2018-04-26T17:11:30.873Z,16.87
2018-04-26T17:13:58.503Z,16.85
2018-04-26T17:16:26.155Z,16.75
2018-04-26T17:18:53.769Z,16.72
2018-04-26T17:21:21.419Z,16.63
2018-04-26T17:23:49.070Z,16.71
2018-04-26T17:26:16.719Z,16.66
2018-04-26T17:28:44.327Z,16.80
2018-04-26T17:31:11.975Z,16.73
2018-04-26T17:33:39.583Z,16.46
2018-04-26T17:36:07.234Z,16.65
2018-04-26T17:38:34.850Z,16.65
2018-04-26T17:41:02.504Z,16.63
2018-04-26T17:43:30.107Z,16.28
2018-04-26T17:45:57.767Z,16.36
2018-04-26T17:48:25.367Z,16.51
2018-04-26T17:50:53.019Z,16.05
2018-04-26T17:53:20.708Z,16.27
2018-04-26T17:55:48.263Z,16.39
2018-04-26T17:58:15.957Z,16.08
2018-04-26T18:00:43.568Z,16.09
2018-04-26T18:03:11.218Z,16.03
2018-04-26T18:05:38.825Z,15.80
2018-04-26T18:08:06.471Z,15.78
2018-04-26T18:10:34.073Z,15.66
2018-04-26T18:13:01.714Z,15.59
2018-04-26T18:15:29.318Z,15.75
2018-04-26T18:17:56.963Z,15.77
2018-04-26T18:20:24.620Z,15.71
2018-04-26T18:22:52.251Z,15.61
2018-04-26T18:25:19.928Z,15.53
2018-04-26T18:27:47.572Z,15.43
2018-04-26T18:30:15.185Z,15.33
2018-04-26T18:32:42.835Z,15.34
2018-04-26T18:35:10.438Z,15.39
2018-04-26T18:37:38.084Z,15.47
2018-04-26T18:40:05.708Z,15.30
2018-04-26T18:42:33.364Z,15.47
2018-04-26T18:45:01.155Z,15.43
2018-04-26T18:47:28.806Z,15.46
2018-04-26T18:49:56.413Z,15.37
2018-04-26T18:52:24.063Z,15.26
2018-04-26T18:54:51.670Z,15.21
2018-04-26T18:57:19.320Z,15.05
2018-04-26T18:59:46.926Z,14.78
2018-04-26T19:02:14.651Z,14.91
2018-04-26T19:04:42.231Z,14.73
2018-04-26T19:07:09.878Z,14.79
2018-04-26T19:09:37.504Z,14.77
2018-04-26T19:12:05.158Z,14.63
2018-04-26T19:14:32.768Z,14.58
2018-04-26T19:17:00.413Z,14.57
2018-04-26T19:19:28.027Z,14.36
2018-04-26T19:21:55.672Z,14.46
2018-04-26T19:24:23.278Z,14.36
2018-04-26T19:26:50.923Z,14.26
2018-04-26T19:29:18.531Z,14.24
2018-04-26T19:31:46.283Z,14.09
2018-04-26T19:34:13.906Z,14.09
2018-04-26T19:36:41.644Z,14.04
2018-04-26T19:39:09.248Z,14.01
2018-04-26T19:41:36.890Z,13.96
2018-04-26T19:44:04.490Z,13.93
2018-04-26T19:46:32.140Z,14.06
2018-04-26T19:48:59.742Z,14.10
2018-04-26T19:51:27.391Z,14.06
2018-04-26T19:53:54.995Z,14.04
2018-04-26T19:56:22.646Z,14.10
2018-04-26T19:58:50.258Z,14.07
2018-04-26T20:01:17.871Z,14.01
2018-04-26T20:03:45.515Z,14.03
2018-04-26T20:06:13.200Z,13.95
2018-04-26T20:08:40.909Z,13.87
2018-04-26T20:11:08.928Z,13.94
2018-04-26T20:13:36.574Z,13.87
2018-04-26T20:16:04.176Z,13.82
2018-04-26T20:18:31.881Z,13.82
2018-04-26T20:20:59.472Z,13.75
2018-04-26T20:23:27.127Z,13.64
2018-04-26T20:25:55.179Z,13.53
2018-04-26T20:28:22.848Z,13.46
2018-04-26T20:30:50.474Z,13.38
2018-04-26T20:33:18.131Z,13.41
2018-04-26T20:35:45.763Z,13.28
2018-04-26T20:38:13.422Z,13.22
2018-04-26T20:40:41.036Z,13.18
2018-04-26T20:43:08.691Z,13.31
2018-04-26T20:45:36.318Z,13.17
2018-04-26T20:48:03.975Z,13.19
2018-04-26T20:50:31.758Z,13.33
2018-04-26T20:52:59.938Z,13.30
2018-04-26T20:55:27.599Z,13.41
2018-04-26T20:57:55.243Z,13.48
2018-04-26T21:00:22.874Z,13.54
2018-04-26T21:02:50.515Z,13.57
2018-04-26T21:05:18.132Z,13.52
2018-04-26T21:07:45.786Z,13.52
2018-04-26T21:10:13.395Z,13.54
2018-04-26T21:12:41.060Z,13.53
2018-04-26T21:15:08.669Z,13.49
2018-04-26T21:17:36.313Z,13.51
2018-04-26T21:20:03.928Z,13.49
2018-04-26T21:22:31.615Z,13.55
2018-04-26T21:24:59.228Z,13.44
2018-04-26T21:27:27.083Z,13.48
2018-04-26T21:29:54.706Z,13.46
2018-04-26T21:32:22.351Z,13.43
2018-04-26T21:34:49.964Z,13.31
2018-04-26T21:37:17.612Z,13.33
2018-04-26T21:39:45.766Z,13.31
2018-04-26T21:42:13.458Z,13.25
2018-04-26T21:44:41.104Z,13.24
2018-04-26T21:47:08.746Z,13.14
2018-04-26T21:49:35.826Z,13.15
2018-04-26T21:52:08.870Z,12.98
2018-04-26T21:54:42.299Z,13.01
2018-04-26T21:57:15.577Z,13.02
2018-04-26T21:59:48.680Z,12.95
2018-04-26T22:02:21.969Z,12.80
2018-04-26T22:04:54.955Z,12.70
2018-04-26T22:07:22.631Z,12.61
2018-04-26T22:09:50.318Z,12.55
2018-04-26T22:12:17.979Z,12.56
2018-04-26T22:14:45.627Z,12.56
2018-04-26T22:17:13.246Z,12.50
2018-04-26T22:19:40.913Z,12.37
2018-04-26T22:22:08.531Z,12.11
2018-04-26T22:24:36.195Z,12.15
2018-04-26T22:27:03.815Z,12.18
2018-04-26T22:29:31.488Z,12.09
2018-04-26T22:31:59.099Z,12.00
2018-04-26T22:34:26.744Z,12.03
2018-04-26T22:36:54.355Z,11.92
2018-04-26T22:39:22.002Z,12.00
2018-04-26T22:41:49.607Z,12.05
2018-04-26T22:44:17.255Z,12.08
2018-04-26T22:46:44.870Z,12.07
2018-04-26T22:49:12.518Z,12.00
2018-04-26T22:51:40.136Z,11.93
2018-04-26T22:54:07.788Z,11.90
2018-04-26T22:56:35.400Z,11.87
2018-04-26T22:59:03.047Z,11.77
2018-04-26T23:01:30.668Z,11.78
2018-04-26T23:03:58.327Z,11.75
2018-04-26T23:06:25.930Z,11.63
2018-04-26T23:08:53.590Z,11.55
2018-04-26T23:11:21.213Z,11.12
2018-04-26T23:13:48.870Z,11.11
2018-04-26T23:16:16.484Z,11.24
2018-04-26T23:18:44.139Z,11.20
2018-04-26T23:21:11.744Z,11.09
2018-04-26T23:23:39.387Z,11.08
2018-04-26T23:26:07.018Z,11.03
2018-04-26T23:28:34.672Z,11.05
2018-04-26T23:31:02.292Z,11.04
2018-04-26T23:33:29.941Z,10.85
2018-04-26T23:35:57.559Z,10.75
2018-04-26T23:38:25.216Z,10.65
2018-04-26T23:40:52.824Z,10.83
2018-04-26T23:43:20.471Z,10.75
2018-04-26T23:45:48.083Z,10.71
2018-04-26T23:48:15.731Z,10.43
2018-04-26T23:50:43.378Z,10.55
2018-04-26T23:53:11.039Z,10.53
2018-04-26T23:55:38.649Z,10.44
2018-04-26T23:58:06.298Z,10.67
